Time;durP1;ratioP1;P1;durP2;ratioP2;P2;SDS_P1;SDS_P2;PMS_P1;PMS_P2;Temp;Humidity;BMP_temperature;BMP_pressure;BME280_temperature;BME280_humidity;BME280_pressure;Samples;Min_cycle;Max_cycle;Signal;HPM_P1;HPM_P2
2022/09/12 00:02:25;;;;;;;12.85;8.88;;;;;;;19.59;66.71;101778.44;6135997;23;20005;-50
2022/09/12 00:04:50;;;;;;;10.73;8.68;;;;;;;19.57;66.85;101783.78;6135158;23;20013;-49
2022/09/12 00:07:15;;;;;;;11.18;8.02;;;;;;;19.55;66.76;101782.91;6136531;23;20033;-47
2022/09/12 00:09:41;;;;;;;10.68;8.27;;;;;;;19.52;66.92;101782.06;6129062;23;20483;-49
2022/09/12 00:12:07;;;;;;;11.35;8.00;;;;;;;19.54;66.80;101780.25;6127730;23;20016;-49
2022/09/12 00:14:32;;;;;;;10.50;8.77;;;;;;;19.54;66.84;101778.50;6125406;23;20064;-53
2022/09/12 00:16:59;;;;;;;10.45;8.65;;;;;;;19.56;66.44;101771.44;6133812;23;20082;-52
2022/09/12 00:19:25;;;;;;;10.45;8.75;;;;;;;19.52;66.48;101780.28;6126038;23;20097;-49
2022/09/12 00:21:50;;;;;;;10.75;9.07;;;;;;;19.50;66.63;101779.44;6102387;23;20343;-51
2022/09/12 00:24:16;;;;;;;10.52;8.63;;;;;;;19.51;66.61;101781.19;6098440;23;20125;-50
2022/09/12 00:26:41;;;;;;;11.98;8.68;;;;;;;19.55;66.40;101784.66;6109390;23;20005;-47
2022/09/12 00:29:06;;;;;;;10.63;8.70;;;;;;;19.51;66.52;101770.59;6101047;23;20043;-47
2022/09/12 00:31:32;;;;;;;13.32;9.35;;;;;;;19.52;66.45;101779.41;6082929;23;20032;-49
2022/09/12 00:34:02;;;;;;;11.10;9.13;;;;;;;19.49;66.40;101780.31;6110768;23;20081;-50
2022/09/12 00:36:29;;;;;;;10.55;8.95;;;;;;;19.59;65.89;101775.81;6103165;23;20477;-49
2022/09/12 00:38:55;;;;;;;13.05;8.88;;;;;;;19.60;65.92;101770.50;6110398;23;20844;-49
2022/09/12 00:41:23;;;;;;;12.32;8.73;;;;;;;19.65;65.69;101770.44;6104923;23;20065;-51
2022/09/12 00:43:58;;;;;;;11.65;8.85;;;;;;;19.61;65.75;101771.38;6108059;23;20027;-50
2022/09/12 00:46:38;;;;;;;10.13;8.70;;;;;;;19.57;66.05;101761.72;6108030;23;20009;-48
2022/09/12 00:49:11;;;;;;;11.90;8.98;;;;;;;19.62;65.86;101762.56;6101538;23;20013;-49
2022/09/12 00:52:00;;;;;;;14.95;9.55;;;;;;;19.31;66.47;101765.44;6109642;23;20025;-50
2022/09/12 00:54:31;;;;;;;12.32;9.57;;;;;;;19.44;66.36;101766.22;6073877;23;20389;-48
2022/09/12 00:57:01;;;;;;;13.20;9.15;;;;;;;19.74;65.23;101762.44;6109380;23;20361;-47
2022/09/12 00:59:37;;;;;;;11.07;9.13;;;;;;;19.78;65.05;101751.81;6109411;23;20020;-48
2022/09/12 01:02:03;;;;;;;11.75;8.55;;;;;;;19.82;64.77;101760.59;6107094;23;20013;-50
2022/09/12 01:04:29;;;;;;;12.18;8.82;;;;;;;19.80;65.05;101757.09;6096984;23;20011;-49
2022/09/12 01:06:57;;;;;;;10.85;8.45;;;;;;;19.78;64.90;101756.22;6107532;23;20785;-53
2022/09/12 01:09:24;;;;;;;10.77;8.88;;;;;;;19.79;64.82;101752.69;6113494;23;20013;-51
2022/09/12 01:11:52;;;;;;;12.13;9.10;;;;;;;19.78;64.65;101758.84;6106037;23;20013;-48
2022/09/12 01:14:19;;;;;;;12.68;9.07;;;;;;;19.77;64.71;101750.03;6096411;23;20076;-49
2022/09/12 01:16:47;;;;;;;9.95;8.15;;;;;;;19.78;64.49;101748.28;6070248;23;20013;-48
2022/09/12 01:19:31;;;;;;;10.90;8.15;;;;;;;19.76;64.54;101748.28;6112982;23;20017;-48
2022/09/12 01:22:15;;;;;;;11.95;8.23;;;;;;;19.73;64.69;101747.44;6097289;23;20088;-49
2022/09/12 01:25:27;;;;;;;11.32;8.55;;;;;;;19.65;64.66;101747.53;6109298;23;20013;-48
2022/09/12 01:28:14;;;;;;;11.20;8.40;;;;;;;19.73;64.33;101737.75;6108737;23;20024;-49
2022/09/12 01:30:52;;;;;;;11.45;8.65;;;;;;;19.65;64.45;101744.88;6107966;23;20017;-47
2022/09/12 01:33:33;;;;;;;10.90;8.48;;;;;;;19.66;64.38;101737.81;6089096;23;20016;-51
2022/09/12 01:36:21;;;;;;;11.68;8.82;;;;;;;19.66;64.04;101743.13;6111059;23;20010;-49
2022/09/12 01:39:01;;;;;;;10.23;8.10;;;;;;;19.62;63.97;101731.69;6076951;23;20013;-48
2022/09/12 01:41:59;;;;;;;11.48;8.38;;;;;;;19.49;64.31;101737.13;6111289;23;20019;-48
2022/09/12 01:44:38;;;;;;;11.90;9.18;;;;;;;19.50;64.16;101730.94;6106578;23;20024;-47
2022/09/12 01:47:15;;;;;;;12.48;8.80;;;;;;;19.47;64.42;101728.31;6110637;23;20019;-48
2022/09/12 01:49:54;;;;;;;12.85;9.02;;;;;;;19.43;64.70;101722.16;6105166;23;20013;-52
2022/09/12 01:52:30;;;;;;;11.90;9.23;;;;;;;19.41;64.68;101716.88;6100616;23;20089;-49
2022/09/12 01:55:12;;;;;;;14.40;8.98;;;;;;;19.40;64.60;101714.22;6106217;23;20037;-48
2022/09/12 01:57:43;;;;;;;12.27;9.65;;;;;;;19.38;64.84;101713.41;6106261;23;20147;-47
2022/09/12 02:00:11;;;;;;;11.68;8.52;;;;;;;19.33;64.93;101716.06;6104418;23;20024;-49
2022/09/12 02:02:40;;;;;;;12.88;9.88;;;;;;;19.31;64.95;101709.94;6101717;23;20001;-48
2022/09/12 02:05:15;;;;;;;12.32;9.07;;;;;;;19.30;65.04;101716.09;6097336;23;20527;-50
2022/09/12 02:07:52;;;;;;;13.02;8.93;;;;;;;19.23;65.21;101703.81;6117109;23;20069;-48
2022/09/12 02:10:22;;;;;;;12.55;9.20;;;;;;;19.29;64.91;101703.75;6104116;23;20024;-51
2022/09/12 02:13:04;;;;;;;14.18;10.05;;;;;;;19.25;64.92;101701.19;6105562;23;20417;-49
2022/09/12 02:15:39;;;;;;;13.75;9.40;;;;;;;19.26;65.08;101693.25;6116180;23;20413;-49
2022/09/12 02:18:05;;;;;;;16.23;10.38;;;;;;;19.23;65.05;101695.00;6111920;23;20148;-50
2022/09/12 02:20:37;;;;;;;12.93;9.32;;;;;;;19.27;64.94;101694.97;6106136;23;20012;-50
2022/09/12 02:23:09;;;;;;;13.52;9.85;;;;;;;19.32;64.73;101698.47;6106149;23;20010;-52
2022/09/12 02:25:42;;;;;;;12.27;9.65;;;;;;;19.30;64.91;101687.03;6102857;23;20009;-47
2022/09/12 02:28:15;;;;;;;15.35;9.60;;;;;;;19.29;64.98;101690.53;6106393;23;20456;-46
2022/09/12 02:30:51;;;;;;;14.07;10.23;;;;;;;19.15;65.00;101681.84;6107625;23;20041;-48
2022/09/12 02:33:25;;;;;;;14.60;10.40;;;;;;;19.25;64.76;101680.91;6106772;23;20916;-49
2022/09/12 02:36:07;;;;;;;14.98;10.35;;;;;;;19.33;64.52;101679.03;6096406;23;20014;-48
2022/09/12 02:38:44;;;;;;;13.70;9.93;;;;;;;19.38;64.11;101679.91;6084902;23;20009;-49
2022/09/12 02:41:11;;;;;;;14.80;10.60;;;;;;;19.38;64.02;101681.66;6105037;23;20018;-51
2022/09/12 02:43:37;;;;;;;18.00;10.60;;;;;;;19.40;64.02;101674.56;6112410;23;20341;-49
2022/09/12 02:46:08;;;;;;;14.10;10.48;;;;;;;19.39;63.94;101672.84;6114109;23;20452;-49
2022/09/12 02:48:39;;;;;;;13.48;10.52;;;;;;;19.55;63.23;101677.09;6108982;23;20025;-48
2022/09/12 02:51:04;;;;;;;13.98;9.52;;;;;;;19.66;62.88;101677.84;6118700;23;20484;-47
2022/09/12 02:53:30;;;;;;;14.45;10.48;;;;;;;19.65;62.75;101665.50;6105030;23;20006;-49
2022/09/12 02:55:56;;;;;;;14.13;9.82;;;;;;;19.72;62.75;101667.19;6106813;23;20326;-50
2022/09/12 02:58:25;;;;;;;14.98;10.52;;;;;;;19.59;63.06;101672.63;6074890;23;20021;-50
2022/09/12 03:01:11;;;;;;;14.20;10.75;;;;;;;19.69;62.86;101663.72;6095631;23;20674;-50
2022/09/12 03:03:51;;;;;;;16.17;10.93;;;;;;;19.22;63.73;101662.41;6106345;23;20551;-48
2022/09/12 03:06:35;;;;;;;14.75;10.10;;;;;;;19.46;63.52;101657.81;6101514;23;20088;-52
2022/09/12 03:09:08;;;;;;;16.48;10.52;;;;;;;19.50;62.94;101655.13;6105586;23;20016;-48
2022/09/12 03:11:55;;;;;;;14.73;11.02;;;;;;;19.55;63.06;101645.38;6109428;23;20681;-48
2022/09/12 03:14:30;;;;;;;15.40;11.13;;;;;;;19.48;63.76;101659.53;6098646;23;20013;-49
2022/09/12 03:17:32;;;;;;;17.85;11.90;;;;;;;19.46;64.03;101652.53;6112116;23;20005;-51
2022/09/12 03:20:16;;;;;;;17.27;10.98;;;;;;;19.64;63.44;101647.03;6111436;23;20024;-46
2022/09/12 03:22:52;;;;;;;14.77;10.30;;;;;;;19.80;62.97;101646.81;6106932;23;20088;-46
2022/09/12 03:25:25;;;;;;;14.98;10.13;;;;;;;19.85;62.85;101647.66;6083749;23;20013;-47
2022/09/12 03:28:06;;;;;;;13.07;9.90;;;;;;;19.86;62.84;101643.22;6080252;23;20017;-50
2022/09/12 03:30:42;;;;;;;14.23;10.25;;;;;;;19.71;63.40;101643.41;6076025;23;20014;-52
2022/09/12 03:33:13;;;;;;;14.57;10.10;;;;;;;19.80;62.82;101638.88;6079987;23;20010;-50
2022/09/12 03:35:39;;;;;;;15.85;11.10;;;;;;;19.67;63.31;101645.22;6079514;23;20210;-48
2022/09/12 03:38:06;;;;;;;15.77;10.75;;;;;;;19.71;63.16;101636.34;6075776;23;20080;-47
2022/09/12 03:40:33;;;;;;;13.57;10.30;;;;;;;19.73;63.28;101636.34;6069256;23;20353;-48
2022/09/12 03:42:58;;;;;;;15.30;10.60;;;;;;;19.56;63.60;101639.19;6075562;23;20338;-48
2022/09/12 03:45:23;;;;;;;15.75;11.20;;;;;;;19.40;64.03;101635.78;6082147;23;20014;-48
2022/09/12 03:47:49;;;;;;;13.73;10.90;;;;;;;19.36;64.02;101641.13;6076498;23;20586;-52
2022/09/12 03:50:14;;;;;;;17.05;11.30;;;;;;;19.37;63.91;101638.47;6067537;23;20434;-50
2022/09/12 03:52:40;;;;;;;16.95;11.80;;;;;;;19.23;64.66;101640.38;6071218;23;20041;-48
2022/09/12 03:55:18;;;;;;;16.73;11.32;;;;;;;19.48;63.94;101632.22;6075646;23;20200;-51
2022/09/12 03:57:43;;;;;;;16.10;11.48;;;;;;;19.55;63.68;101637.44;6087908;23;20012;-47
2022/09/12 04:00:10;;;;;;;16.23;12.05;;;;;;;19.23;64.67;101635.09;6076565;23;20006;-48
2022/09/12 04:02:35;;;;;;;15.88;11.63;;;;;;;19.40;64.25;101632.25;6079983;23;20093;-49
2022/09/12 04:05:10;;;;;;;15.93;11.48;;;;;;;19.53;63.98;101627.75;6081016;23;20052;-47
2022/09/12 04:07:36;;;;;;;15.10;11.18;;;;;;;19.44;63.83;101634.88;6045666;23;20388;-49
2022/09/12 04:10:01;;;;;;;15.98;11.82;;;;;;;19.48;64.06;101629.56;6072711;23;20090;-49
2022/09/12 04:12:28;;;;;;;17.13;11.23;;;;;;;19.42;64.22;101626.06;6064499;23;20021;-50
2022/09/12 04:14:53;;;;;;;15.27;11.05;;;;;;;19.28;64.74;101632.38;6079321;23;20149;-49
2022/09/12 04:17:19;;;;;;;15.73;11.65;;;;;;;19.43;64.53;101626.94;6085468;23;20477;-49
2022/09/12 04:19:44;;;;;;;18.38;12.23;;;;;;;19.41;64.14;101624.31;6071274;23;20576;-49
2022/09/12 04:22:09;;;;;;;17.02;10.90;;;;;;;19.36;64.80;101633.19;6071689;23;20006;-50
2022/09/12 04:24:35;;;;;;;17.52;11.80;;;;;;;19.29;65.00;101635.03;6076439;23;20323;-49
2022/09/12 04:27:00;;;;;;;16.88;10.95;;;;;;;19.29;64.97;101634.16;6073560;23;20014;-50
2022/09/12 04:29:28;;;;;;;19.38;12.10;;;;;;;19.11;65.53;101627.28;6067465;23;20341;-48
2022/09/12 04:31:53;;;;;;;17.05;12.55;;;;;;;18.99;66.13;101630.91;6075158;23;20017;-48
2022/09/12 04:34:19;;;;;;;17.02;12.45;;;;;;;19.00;66.00;101626.50;6073621;23;20828;-52
2022/09/12 04:36:44;;;;;;;18.30;12.43;;;;;;;19.04;65.91;101623.81;6079923;23;20013;-48
2022/09/12 04:39:10;;;;;;;18.23;11.80;;;;;;;19.21;65.47;101628.09;6067686;23;20630;-50
2022/09/12 04:41:40;;;;;;;18.15;11.77;;;;;;;19.20;65.23;101628.97;6081780;23;20108;-47
2022/09/12 04:44:10;;;;;;;18.80;12.45;;;;;;;18.94;66.32;101637.13;6077783;23;20014;-50
2022/09/12 04:46:37;;;;;;;17.98;12.45;;;;;;;18.75;67.09;101631.13;6090355;23;20673;-49
2022/09/12 04:49:04;;;;;;;17.48;12.30;;;;;;;18.83;66.80;101631.06;6080420;23;20013;-47
2022/09/12 04:51:32;;;;;;;20.38;12.65;;;;;;;19.02;66.12;101630.91;6083591;23;20013;-48
2022/09/12 04:54:00;;;;;;;17.67;12.60;;;;;;;19.05;65.70;101630.84;6085970;23;20009;-48
2022/09/12 04:56:27;;;;;;;17.98;12.50;;;;;;;19.01;65.48;101637.06;6066625;23;20120;-47
2022/09/12 04:58:56;;;;;;;18.02;12.23;;;;;;;18.95;65.71;101631.84;6082886;23;20040;-50
2022/09/12 05:01:22;;;;;;;17.73;12.73;;;;;;;18.92;66.15;101633.63;6077195;23;20016;-48
2022/09/12 05:03:48;;;;;;;19.80;12.55;;;;;;;18.86;66.61;101639.84;6082323;23;20010;-48
2022/09/12 05:06:16;;;;;;;20.95;13.15;;;;;;;18.77;66.98;101631.13;6071348;23;20092;-49
2022/09/12 05:08:42;;;;;;;17.40;12.25;;;;;;;18.76;66.92;101629.38;6069784;23;20006;-49
2022/09/12 05:11:18;;;;;;;19.25;12.13;;;;;;;18.70;67.13;101630.31;6087587;23;20014;-48
2022/09/12 05:13:44;;;;;;;19.98;12.70;;;;;;;18.69;67.39;101632.94;6048161;23;20489;-48
2022/09/12 05:16:11;;;;;;;19.70;12.65;;;;;;;18.62;67.79;101626.81;6071294;23;20106;-49
2022/09/12 05:18:37;;;;;;;19.85;13.32;;;;;;;18.62;67.87;101629.47;6079412;23;20014;-49
2022/09/12 05:21:06;;;;;;;20.40;12.50;;;;;;;18.64;67.75;101623.31;6083357;23;20010;-47
2022/09/12 05:23:32;;;;;;;18.55;12.45;;;;;;;18.76;67.27;101622.31;6078973;23;20010;-48
2022/09/12 05:25:59;;;;;;;19.02;11.85;;;;;;;18.81;67.17;101623.16;6077163;23;20433;-49
2022/09/12 05:28:28;;;;;;;18.20;12.32;;;;;;;18.82;67.21;101621.41;6078423;23;21012;-49
2022/09/12 05:31:02;;;;;;;19.42;13.05;;;;;;;18.76;67.52;101613.53;6069474;23;20436;-49
2022/09/12 05:33:29;;;;;;;20.13;13.55;;;;;;;18.68;67.84;101607.41;6080175;23;20002;-51
2022/09/12 05:35:55;;;;;;;20.65;13.30;;;;;;;18.58;68.19;101604.00;6081989;23;20034;-50
2022/09/12 05:38:20;;;;;;;22.23;13.20;;;;;;;18.77;67.51;101602.06;6063262;23;20049;-50
2022/09/12 05:40:46;;;;;;;19.77;13.60;;;;;;;18.72;67.69;101607.41;6080460;23;20025;-47
2022/09/12 05:43:12;;;;;;;19.33;13.07;;;;;;;18.83;67.36;101607.31;6075129;23;20010;-49
2022/09/12 05:45:38;;;;;;;22.92;14.23;;;;;;;18.81;67.50;101615.22;6081006;23;20035;-49
2022/09/12 05:48:03;;;;;;;22.00;14.27;;;;;;;18.94;66.75;101611.59;6084464;23;20006;-50
2022/09/12 05:50:29;;;;;;;21.50;13.75;;;;;;;19.05;66.68;101619.41;6066982;23;20353;-51
2022/09/12 05:52:56;;;;;;;18.50;12.70;;;;;;;19.02;66.53;101620.34;6080474;23;20006;-49
2022/09/12 05:55:22;;;;;;;18.77;12.57;;;;;;;19.02;66.69;101614.16;6077310;23;20736;-47
2022/09/12 05:57:50;;;;;;;18.95;13.10;;;;;;;19.03;66.53;101619.41;6081278;23;20002;-49
2022/09/12 06:00:18;;;;;;;19.13;12.68;;;;;;;19.07;66.74;101622.03;6066393;23;20532;-50
2022/09/12 06:02:43;;;;;;;19.40;13.88;;;;;;;19.07;66.77;101616.75;6074016;23;20006;-50
2022/09/12 06:05:09;;;;;;;21.00;13.52;;;;;;;19.08;66.85;101618.53;6081084;23;20067;-49
2022/09/12 06:07:34;;;;;;;21.38;14.48;;;;;;;19.17;66.59;101614.00;6072674;23;20386;-50
2022/09/12 06:10:00;;;;;;;18.55;13.63;;;;;;;19.24;66.58;101618.34;6078630;23;20101;-49
2022/09/12 06:12:29;;;;;;;22.27;13.60;;;;;;;19.36;66.29;101606.75;6070112;23;20380;-53
2022/09/12 06:14:55;;;;;;;19.80;14.00;;;;;;;19.49;65.73;101604.88;6067220;23;20033;-49
2022/09/12 06:17:21;;;;;;;19.40;13.48;;;;;;;19.53;65.47;101606.59;6088899;23;20029;-50
2022/09/12 06:19:49;;;;;;;20.83;14.50;;;;;;;19.63;65.20;101601.19;6080825;23;21018;-50
2022/09/12 06:22:14;;;;;;;23.73;14.02;;;;;;;19.76;64.76;101591.34;6077118;23;20736;-49
2022/09/12 06:24:39;;;;;;;20.65;14.25;;;;;;;19.85;64.21;101596.50;6077516;23;20076;-51
2022/09/12 06:27:05;;;;;;;20.48;13.50;;;;;;;20.04;64.68;101603.28;6081811;23;20010;-49
2022/09/12 06:29:31;;;;;;;19.13;13.80;;;;;;;20.73;63.54;101599.63;6076493;23;20006;-49
2022/09/12 06:31:57;;;;;;;22.38;13.85;;;;;;;21.54;59.57;101599.88;6073709;23;20017;-49
2022/09/12 06:34:26;;;;;;;18.05;12.95;;;;;;;22.57;57.00;101602.00;6053264;23;20005;-50
2022/09/12 06:36:52;;;;;;;23.00;15.07;;;;;;;22.95;53.83;101591.28;6080548;23;20337;-50
2022/09/12 06:39:20;;;;;;;25.88;16.05;;;;;;;23.53;51.74;101591.53;6080156;23;20018;-53
2022/09/12 06:41:46;;;;;;;21.30;15.00;;;;;;;24.11;50.40;101591.50;6081941;23;20006;-49
2022/09/12 06:44:14;;;;;;;22.60;14.77;;;;;;;24.47;49.70;101589.50;6069420;23;20013;-48
2022/09/12 06:46:40;;;;;;;24.33;15.48;;;;;;;24.19;49.55;101586.84;6088503;23;20017;-48
2022/09/12 06:49:07;;;;;;;21.67;15.32;;;;;;;24.38;49.61;101602.25;6077656;23;20006;-51
2022/09/12 06:51:32;;;;;;;21.25;15.13;;;;;;;24.75;48.11;101601.91;6081125;23;20089;-50
2022/09/12 06:53:58;;;;;;;24.02;15.95;;;;;;;24.84;48.55;101599.78;6081046;23;20093;-51
2022/09/12 06:56:26;;;;;;;26.30;15.98;;;;;;;25.22;47.48;101603.84;6065928;23;20740;-50
2022/09/12 06:58:52;;;;;;;23.50;14.55;;;;;;;25.82;45.76;101605.19;6080303;23;20010;-50
2022/09/12 07:01:23;;;;;;;19.05;15.00;;;;;;;25.66;46.41;101604.91;6072054;23;20010;-48
2022/09/12 07:03:50;;;;;;;22.17;15.60;;;;;;;25.61;46.08;101606.91;6083393;23;20005;-47
2022/09/12 07:06:18;;;;;;;22.05;15.38;;;;;;;25.31;46.80;101608.81;6062467;23;20009;-47
2022/09/12 07:08:44;;;;;;;24.25;15.93;;;;;;;24.78;48.09;101608.00;6079801;23;20073;-52
2022/09/12 07:11:20;;;;;;;22.00;15.80;;;;;;;24.39;49.38;101612.88;6081474;23;20113;-48
2022/09/12 07:13:48;;;;;;;21.50;16.45;;;;;;;24.04;50.18;101613.06;6072902;23;20017;-47
2022/09/12 07:16:14;;;;;;;26.20;16.98;;;;;;;24.37;50.38;101605.84;6073826;23;21002;-52
2022/09/12 07:18:40;;;;;;;20.98;15.85;;;;;;;24.87;48.79;101610.38;6079976;23;20017;-50
2022/09/12 07:21:11;;;;;;;21.52;15.23;;;;;;;25.07;48.88;101614.19;6070647;23;20014;-48
2022/09/12 07:23:37;;;;;;;20.42;15.63;;;;;;;25.85;46.07;101605.97;6074035;23;20033;-48
2022/09/12 07:26:03;;;;;;;20.38;14.52;;;;;;;26.23;45.50;101608.91;6072935;23;20088;-48
2022/09/12 07:28:31;;;;;;;21.20;15.00;;;;;;;26.82;43.97;101616.34;6077238;23;20009;-47
2022/09/12 07:30:58;;;;;;;22.80;15.35;;;;;;;27.30;43.13;101598.16;6076055;23;20014;-47
2022/09/12 07:33:26;;;;;;;20.77;14.43;;;;;;;26.47;44.42;101607.13;6056619;23;20006;-50
2022/09/12 07:35:55;;;;;;;22.15;14.52;;;;;;;26.35;45.16;101605.78;6085615;23;20013;-49
2022/09/12 07:38:21;;;;;;;23.67;14.63;;;;;;;26.15;45.37;101609.25;6073623;23;20017;-47
2022/09/12 07:40:46;;;;;;;18.05;14.15;;;;;;;25.71;47.11;101602.94;6082776;23;20041;-47
2022/09/12 07:43:12;;;;;;;21.17;14.23;;;;;;;24.91;48.61;101606.69;6067842;23;20002;-46
2022/09/12 07:45:40;;;;;;;20.83;14.10;;;;;;;24.81;48.77;101607.91;6079575;23;20451;-49
2022/09/12 07:48:09;;;;;;;18.85;13.02;;;;;;;24.60;49.52;101604.16;6088666;23;20081;-49
2022/09/12 07:50:35;;;;;;;23.63;14.80;;;;;;;24.42;50.77;101611.88;6065732;23;20014;-47
2022/09/12 07:53:02;;;;;;;20.65;15.20;;;;;;;23.79;52.06;101607.59;6078457;23;20093;-51
2022/09/12 07:55:29;;;;;;;22.45;15.75;;;;;;;23.89;52.05;101610.88;6073725;23;20010;-48
2022/09/12 07:57:54;;;;;;;22.30;15.45;;;;;;;23.89;52.38;101606.41;6082898;23;20314;-48
2022/09/12 08:00:19;;;;;;;24.27;14.27;;;;;;;23.85;52.73;101607.41;6063388;23;20837;-48
2022/09/12 08:02:49;;;;;;;21.65;15.18;;;;;;;23.88;52.72;101606.44;6084074;23;20002;-52
2022/09/12 08:05:15;;;;;;;21.67;15.05;;;;;;;23.81;52.81;101600.44;6071434;23;20006;-49
2022/09/12 08:07:40;;;;;;;23.42;14.38;;;;;;;23.74;53.55;101604.19;6076451;23;20084;-51
2022/09/12 08:10:08;;;;;;;25.77;15.27;;;;;;;23.79;53.45;101603.13;6075898;23;20060;-51
2022/09/12 08:12:33;;;;;;;20.85;13.30;;;;;;;23.88;52.94;101604.66;6071803;23;20018;-47
2022/09/12 08:14:59;;;;;;;18.60;12.85;;;;;;;24.08;52.63;101604.06;6059389;23;20410;-49
2022/09/12 08:17:24;;;;;;;19.30;13.27;;;;;;;24.10;52.72;101607.53;6051256;23;20032;-50
2022/09/12 08:19:50;;;;;;;17.08;11.70;;;;;;;24.21;52.34;101614.31;6073995;23;20017;-48
2022/09/12 08:22:15;;;;;;;18.50;12.77;;;;;;;24.11;51.63;101609.28;6075873;23;20202;-49
2022/09/12 08:24:40;;;;;;;17.48;12.35;;;;;;;23.63;53.08;101614.28;6076115;23;20086;-50
2022/09/12 08:27:07;;;;;;;17.77;12.15;;;;;;;23.20;54.02;101611.91;6078964;23;20010;-47
2022/09/12 08:29:32;;;;;;;16.88;12.35;;;;;;;23.43;53.27;101610.38;6073326;23;20052;-52
2022/09/12 08:31:57;;;;;;;17.52;11.80;;;;;;;23.59;53.38;101602.88;6047142;23;20034;-48
2022/09/12 08:34:23;;;;;;;18.17;12.32;;;;;;;23.60;53.44;101603.75;6071547;23;20009;-49
2022/09/12 08:36:49;;;;;;;17.50;11.55;;;;;;;23.73;53.03;101611.31;6074549;23;20010;-49
2022/09/12 08:39:14;;;;;;;14.15;10.00;;;;;;;23.92;52.07;101606.31;6075988;23;20023;-48
2022/09/12 08:41:43;;;;;;;15.48;11.02;;;;;;;23.97;51.62;101606.19;6082398;23;20066;-51
2022/09/12 08:44:30;;;;;;;15.43;10.75;;;;;;;23.91;51.33;101609.03;6068615;23;20277;-48
2022/09/12 08:47:01;;;;;;;16.75;9.85;;;;;;;23.73;51.77;101613.09;6065170;23;20131;-52
2022/09/12 08:49:34;;;;;;;14.55;9.98;;;;;;;23.58;52.05;101608.22;6078987;23;20108;-51
2022/09/12 08:52:29;;;;;;;10.98;7.90;;;;;;;23.53;52.11;101604.84;6081197;23;20020;-47
2022/09/12 08:55:01;;;;;;;12.30;9.02;;;;;;;23.93;51.64;101604.53;6071444;23;20138;-51
2022/09/12 08:57:26;;;;;;;13.07;8.77;;;;;;;23.99;51.13;101599.88;6057867;23;20539;-47
2022/09/12 08:59:52;;;;;;;11.45;7.88;;;;;;;23.77;51.41;101612.09;6076734;23;20465;-48
2022/09/12 09:02:56;;;;;;;13.55;8.60;;;;;;;23.75;51.52;101606.81;6065706;23;20014;-53
2022/09/12 09:05:28;;;;;;;14.02;7.95;;;;;;;24.12;50.57;101605.69;6078066;23;20010;-48
2022/09/12 09:08:29;;;;;;;12.27;8.20;;;;;;;23.93;51.18;101597.41;6074868;23;20041;-49
2022/09/12 09:11:08;;;;;;;11.65;7.10;;;;;;;24.13;50.95;101602.13;6052268;23;20116;-48
2022/09/12 09:16:30;;;;;;;11.95;7.80;;;;;;;24.36;50.16;101593.44;6049867;23;20614;-47
2022/09/12 09:19:00;;;;;;;10.95;7.60;;;;;;;24.21;49.58;101595.66;6071245;23;20010;-51
2022/09/12 09:21:41;;;;;;;10.48;7.32;;;;;;;24.29;49.84;101594.53;6062639;23;20173;-50
2022/09/12 09:24:11;;;;;;;12.68;6.82;;;;;;;24.32;49.25;101595.34;6067299;23;20508;-49
2022/09/12 09:26:50;;;;;;;8.70;6.35;;;;;;;24.36;49.05;101577.44;6072048;23;20006;-47
2022/09/12 09:29:25;;;;;;;12.18;7.20;;;;;;;24.20;48.90;101577.06;6047922;23;20368;-47
2022/09/12 09:31:53;;;;;;;9.88;6.38;;;;;;;23.95;49.64;101579.59;6082096;23;20200;-51
2022/09/12 09:34:23;;;;;;;8.13;5.55;;;;;;;24.26;49.38;101571.56;6053119;23;20064;-49
2022/09/12 09:37:02;;;;;;;6.40;5.30;;;;;;;24.52;48.61;101568.00;6079624;23;20220;-47
2022/09/12 09:39:57;;;;;;;8.65;5.78;;;;;;;24.69;47.92;101562.13;6074814;23;20053;-51
2022/09/12 09:42:59;;;;;;;6.35;5.10;;;;;;;24.82;47.87;101547.44;6081762;23;20040;-51
2022/09/12 09:45:28;;;;;;;7.15;4.30;;;;;;;24.58;47.76;101555.34;6064264;23;20281;-50
2022/09/12 09:48:15;;;;;;;6.05;4.45;;;;;;;25.04;47.69;101546.66;6080280;23;20073;-50
2022/09/12 09:50:41;;;;;;;6.78;4.15;;;;;;;25.04;47.56;101549.34;6078632;23;20014;-51
2022/09/12 09:53:24;;;;;;;6.35;4.65;;;;;;;25.09;47.54;101541.16;6066820;23;20479;-49
2022/09/12 09:55:53;;;;;;;7.35;5.00;;;;;;;25.23;46.54;101546.00;6077354;23;20010;-48
2022/09/12 09:58:33;;;;;;;9.77;5.57;;;;;;;24.76;46.34;101550.34;6075666;23;20014;-50
2022/09/12 10:01:04;;;;;;;7.43;4.97;;;;;;;24.94;46.74;101542.59;6065037;23;20757;-49
2022/09/12 10:03:46;;;;;;;6.85;4.25;;;;;;;25.22;46.86;101545.13;6058963;23;20109;-52
2022/09/12 10:06:31;;;;;;;6.43;4.03;;;;;;;25.41;46.43;101530.16;6077934;23;20237;-50
2022/09/12 10:09:06;;;;;;;6.75;4.97;;;;;;;24.79;46.99;101542.22;6072531;23;20018;-48
2022/09/12 10:11:32;;;;;;;6.72;4.70;;;;;;;24.49;46.58;101537.00;6073886;23;20010;-49
2022/09/12 10:14:01;;;;;;;6.22;4.22;;;;;;;24.40;47.64;101533.75;6074156;23;20460;-47
2022/09/12 10:16:52;;;;;;;7.35;4.30;;;;;;;24.54;47.78;101528.84;6079841;23;20014;-46
2022/09/12 10:19:34;;;;;;;6.85;4.53;;;;;;;24.90;47.10;101535.59;6076467;23;20021;-49
2022/09/12 10:22:02;;;;;;;5.65;4.45;;;;;;;24.94;46.03;101525.72;6068476;23;20002;-47
2022/09/12 10:24:40;;;;;;;5.85;3.92;;;;;;;25.37;45.89;101519.69;6072663;23;20014;-46
2022/09/12 10:27:19;;;;;;;11.95;4.65;;;;;;;24.77;46.19;101517.38;6075784;23;20504;-48
2022/09/12 10:29:50;;;;;;;6.70;4.50;;;;;;;24.78;46.48;101514.66;6078174;23;20014;-52
2022/09/12 10:32:41;;;;;;;6.03;4.10;;;;;;;25.01;46.53;101517.41;6074322;23;20010;-48
2022/09/12 10:35:17;;;;;;;5.65;4.35;;;;;;;24.84;45.58;101519.78;6060067;23;20340;-48
2022/09/12 10:38:30;;;;;;;6.43;3.75;;;;;;;25.14;45.31;101523.19;6080181;23;20006;-53
2022/09/12 10:41:08;;;;;;;7.35;4.53;;;;;;;25.21;44.82;101523.81;6063377;23;20021;-50
2022/09/12 10:43:34;;;;;;;5.75;3.90;;;;;;;24.75;46.10;101529.91;6066595;23;20009;-49
2022/09/12 10:46:22;;;;;;;6.40;4.43;;;;;;;24.77;45.84;101512.03;6084888;23;20005;-48
2022/09/12 10:49:09;;;;;;;9.00;4.28;;;;;;;25.17;46.17;101516.88;6061393;23;20338;-53
2022/09/12 10:51:35;;;;;;;6.57;4.45;;;;;;;25.26;44.54;101513.84;6072770;23;20020;-48
2022/09/12 10:54:02;;;;;;;10.73;8.32;;;;;;;25.31;45.53;101519.91;6077125;23;20013;-51
2022/09/12 10:56:31;;;;;;;14.05;8.88;;;;;;;25.59;44.53;101523.28;6066413;23;20021;-50
2022/09/12 10:59:39;;;;;;;6.40;4.50;;;;;;;25.34;45.36;101517.09;6068081;23;20008;-50
2022/09/12 11:02:37;;;;;;;6.15;4.55;;;;;;;25.79;43.95;101523.41;5957386;23;20022;-50
2022/09/12 11:05:40;;;;;;;8.77;4.00;;;;;;;25.99;44.30;101522.56;5961270;23;20016;-48
2022/09/12 11:08:33;;;;;;;4.82;3.85;;;;;;;26.29;44.17;101525.00;6072817;23;20492;-47
2022/09/12 11:11:22;;;;;;;8.80;4.93;;;;;;;26.13;42.67;101522.03;6063888;23;20014;-51
2022/09/12 11:14:05;;;;;;;5.57;4.20;;;;;;;26.10;43.32;101519.50;6076434;23;20013;-48
2022/09/12 11:16:40;;;;;;;6.90;4.72;;;;;;;26.28;42.87;101512.53;6082959;23;20710;-50
2022/09/12 11:19:26;;;;;;;8.32;4.47;;;;;;;26.59;43.36;101497.78;6070949;23;20009;-52
2022/09/12 11:22:18;;;;;;;6.35;4.50;;;;;;;26.56;43.51;101495.25;6079567;23;20537;-50
2022/09/12 11:25:00;;;;;;;5.55;3.72;;;;;;;26.14;44.74;101503.25;6027654;23;20116;-49
2022/09/12 11:27:38;;;;;;;4.93;3.33;;;;;;;26.03;44.04;101501.97;6067435;23;20465;-51
2022/09/12 11:30:11;;;;;;;5.32;3.50;;;;;;;26.06;42.80;101507.16;6077536;23;20041;-48
2022/09/12 11:32:50;;;;;;;5.00;3.42;;;;;;;26.22;42.74;101503.81;6082969;23;20010;-50
2022/09/12 11:35:28;;;;;;;7.78;3.55;;;;;;;26.35;41.64;101501.50;6069208;23;20013;-50
2022/09/12 11:38:18;;;;;;;6.85;3.20;;;;;;;26.59;42.23;101494.28;6080060;23;20036;-50
2022/09/12 11:40:59;;;;;;;7.95;3.75;;;;;;;26.56;42.71;101499.75;6075906;23;20018;-48